createdAt,value
2019-01-14T00:03:05.791Z,5.64
2019-01-14T00:05:36.392Z,5.58
2019-01-14T00:08:06.669Z,5.53
2019-01-14T00:10:56.385Z,5.56
2019-01-14T00:13:26.745Z,5.56
2019-01-14T00:15:57.334Z,5.58
2019-01-14T00:18:28.810Z,5.58
2019-01-14T00:21:18.642Z,5.60
2019-01-14T00:23:49.200Z,5.60
2019-01-14T00:26:19.365Z,5.60
2019-01-14T00:28:49.511Z,5.56
2019-01-14T00:31:19.724Z,5.56
2019-01-14T00:33:50.214Z,5.53
2019-01-14T00:36:20.268Z,5.53
2019-01-14T00:38:50.468Z,5.55
2019-01-14T00:41:20.638Z,5.57
2019-01-14T00:47:08.678Z,5.63
2019-01-14T00:49:38.796Z,5.63
2019-01-14T00:52:09.419Z,5.67
2019-01-14T00:54:39.774Z,5.69
2019-01-14T00:57:10.594Z,5.70
2019-01-14T00:59:40.834Z,5.72
2019-01-14T01:02:23.332Z,5.76
2019-01-14T01:04:56.221Z,5.76
2019-01-14T01:07:26.305Z,5.79
2019-01-14T01:09:56.594Z,5.80
2019-01-14T01:12:26.760Z,5.82
2019-01-14T01:15:17.184Z,5.81
2019-01-14T01:17:47.398Z,5.82
2019-01-14T01:23:20.337Z,5.83
2019-01-14T01:25:50.489Z,5.77
2019-01-14T01:28:20.943Z,5.80
2019-01-14T01:30:51.568Z,5.83
2019-01-14T01:33:21.703Z,5.85
2019-01-14T01:35:52.280Z,5.92
2019-01-14T01:38:22.486Z,5.95
2019-01-14T01:40:52.522Z,5.95
2019-01-14T01:43:22.690Z,5.95
2019-01-14T01:45:55.224Z,5.94
2019-01-14T01:48:25.589Z,5.93
2019-01-14T01:50:55.816Z,5.97
2019-01-14T01:53:27.719Z,5.98
2019-01-14T01:55:57.890Z,5.98
2019-01-14T01:58:47.520Z,5.93
2019-01-14T02:01:17.642Z,5.93
2019-01-14T02:03:48.242Z,5.92
2019-01-14T02:06:18.577Z,5.93
2019-01-14T02:08:48.731Z,5.91
2019-01-14T02:11:19.187Z,5.93
2019-01-14T02:16:26.971Z,5.89
2019-01-14T02:18:57.372Z,5.88
2019-01-14T02:21:27.649Z,5.83
2019-01-14T02:24:17.927Z,5.83
2019-01-14T02:27:07.733Z,5.84
2019-01-14T02:29:50.210Z,5.80
2019-01-14T02:32:20.432Z,5.80
2019-01-14T02:34:50.487Z,5.80
2019-01-14T02:37:20.736Z,5.81
2019-01-14T02:39:51.208Z,5.83
2019-01-14T02:42:21.221Z,5.85
2019-01-14T02:44:51.512Z,5.87
2019-01-14T02:47:21.772Z,5.89
2019-01-14T02:49:52.350Z,5.94
2019-01-14T02:52:22.562Z,5.90
2019-01-14T02:54:52.703Z,5.88
2019-01-14T02:57:23.213Z,5.87
2019-01-14T02:59:53.402Z,5.82
2019-01-14T03:02:23.427Z,5.81
2019-01-14T03:04:53.523Z,5.76
2019-01-14T03:07:23.888Z,5.69
2019-01-14T03:09:54.295Z,5.62
2019-01-14T03:12:24.549Z,5.70
2019-01-14T03:14:54.888Z,5.65
2019-01-14T03:17:46.537Z,5.60
2019-01-14T03:20:17.216Z,5.60
2019-01-14T03:22:47.631Z,5.59
2019-01-14T03:25:18.112Z,5.57
2019-01-14T03:28:09.642Z,5.58
2019-01-14T03:30:40.073Z,5.58
2019-01-14T03:33:10.277Z,5.65
2019-01-14T03:35:40.731Z,5.61
2019-01-14T03:38:30.085Z,5.47
2019-01-14T03:41:00.671Z,5.47
2019-01-14T03:43:30.743Z,5.47
2019-01-14T03:46:01.101Z,5.39
2019-01-14T03:48:31.466Z,5.33
2019-01-14T03:51:01.612Z,5.28
2019-01-14T03:53:32.054Z,5.21
2019-01-14T03:56:02.343Z,5.15
2019-01-14T03:58:32.493Z,5.14
2019-01-14T04:01:02.614Z,5.10
2019-01-14T04:03:32.711Z,5.11
2019-01-14T04:06:03.302Z,5.14
2019-01-14T04:08:33.435Z,5.17
2019-01-14T04:11:03.750Z,5.22
2019-01-14T04:13:34.187Z,5.23
2019-01-14T04:16:04.433Z,5.25
2019-01-14T04:18:34.710Z,5.22
2019-01-14T04:21:05.064Z,5.22
2019-01-14T04:23:54.464Z,5.16
2019-01-14T04:26:24.756Z,5.16
2019-01-14T04:28:55.286Z,5.11
2019-01-14T04:31:25.547Z,5.08
2019-01-14T04:33:55.655Z,5.04
2019-01-14T04:36:25.911Z,4.99
2019-01-14T04:38:56.779Z,4.97
2019-01-14T04:41:27.206Z,4.91
2019-01-14T04:43:57.410Z,4.89
2019-01-14T04:46:27.595Z,4.89
2019-01-14T04:48:57.749Z,4.92
2019-01-14T04:51:47.409Z,4.92
2019-01-14T04:54:19.881Z,4.92
2019-01-14T04:56:50.260Z,4.89
2019-01-14T04:59:20.615Z,4.87
2019-01-14T05:01:50.780Z,4.88
2019-01-14T05:04:21.129Z,4.91
2019-01-14T05:06:51.326Z,4.91
2019-01-14T05:09:21.508Z,4.95
2019-01-14T05:11:51.758Z,4.90
2019-01-14T05:14:22.211Z,4.91
2019-01-14T05:16:52.491Z,4.89
2019-01-14T05:19:23.023Z,4.84
2019-01-14T05:21:54.657Z,4.78
2019-01-14T05:24:24.809Z,4.70
2019-01-14T05:26:55.220Z,4.71
2019-01-14T05:29:44.587Z,4.63
2019-01-14T05:32:14.812Z,4.63
2019-01-14T05:34:45.357Z,4.56
2019-01-14T05:37:15.664Z,4.64
2019-01-14T05:39:46.126Z,4.62
2019-01-14T05:42:16.654Z,4.62
2019-01-14T05:44:46.871Z,4.63
2019-01-14T05:47:17.117Z,4.64
2019-01-14T05:50:09.002Z,4.64
2019-01-14T05:52:39.471Z,4.64
2019-01-14T05:55:48.819Z,4.61
2019-01-14T05:58:19.372Z,4.63
2019-01-14T06:00:50.407Z,4.62
2019-01-14T06:03:20.777Z,4.63
2019-01-14T06:05:51.220Z,4.64
2019-01-14T06:08:21.418Z,4.63
2019-01-14T06:10:51.631Z,4.62
2019-01-14T06:13:21.657Z,4.65
2019-01-14T06:15:51.893Z,4.67
2019-01-14T06:18:22.523Z,4.66
2019-01-14T06:20:52.559Z,4.65
2019-01-14T06:23:22.585Z,4.65
2019-01-14T06:25:52.845Z,4.52
2019-01-14T06:31:27.363Z,4.45
2019-01-14T06:33:57.472Z,4.41
2019-01-14T06:36:27.715Z,4.39
2019-01-14T06:38:58.379Z,4.40
2019-01-14T06:41:28.533Z,4.44
2019-01-14T06:43:58.599Z,4.48
2019-01-14T06:46:28.714Z,4.49
2019-01-14T06:48:59.229Z,4.50
2019-01-14T06:51:29.478Z,4.49
2019-01-14T06:53:59.697Z,4.49
2019-01-14T06:56:30.205Z,4.44
2019-01-14T06:59:00.511Z,4.47
2019-01-14T07:04:26.369Z,4.45
2019-01-14T07:06:56.632Z,4.37
2019-01-14T07:09:26.849Z,4.31
2019-01-14T07:11:57.633Z,4.26
2019-01-14T07:14:28.150Z,4.20
2019-01-14T07:16:58.169Z,4.15
2019-01-14T07:19:28.259Z,4.15
2019-01-14T07:21:58.379Z,4.12
2019-01-14T07:24:28.505Z,4.07
2019-01-14T07:26:58.805Z,4.07
2019-01-14T07:29:29.267Z,4.08
2019-01-14T07:31:59.418Z,4.07
2019-01-14T07:34:30.679Z,4.10
2019-01-14T07:37:01.204Z,4.13
2019-01-14T07:39:50.759Z,3.65
2019-01-14T07:42:21.303Z,3.65
2019-01-14T07:44:51.629Z,3.07
2019-01-14T07:47:21.864Z,2.68
2019-01-14T07:50:12.447Z,2.58
2019-01-14T07:52:42.911Z,2.58
2019-01-14T07:55:13.427Z,2.57
2019-01-14T07:57:43.717Z,2.62
2019-01-14T08:00:17.157Z,2.66
2019-01-14T08:02:47.439Z,2.72
2019-01-14T08:05:17.759Z,2.78
2019-01-14T08:07:48.486Z,2.84
2019-01-14T08:10:18.721Z,2.86
2019-01-14T08:12:49.239Z,3.26
2019-01-14T08:15:21.157Z,3.22
2019-01-14T08:17:51.711Z,3.14
2019-01-14T08:20:22.116Z,3.15
2019-01-14T08:22:52.521Z,3.15
2019-01-14T08:25:22.880Z,2.74
2019-01-14T08:27:53.374Z,2.17
2019-01-14T08:30:32.349Z,1.87
2019-01-14T08:33:02.657Z,1.97
2019-01-14T08:35:35.333Z,2.00
2019-01-14T08:38:05.750Z,2.03
2019-01-14T08:40:36.268Z,2.09
2019-01-14T08:48:41.339Z,2.35
2019-01-14T08:51:11.752Z,2.57
2019-01-14T08:53:42.054Z,2.69
2019-01-14T08:56:12.581Z,2.79
2019-01-14T08:58:42.616Z,2.89
2019-01-14T09:01:12.845Z,2.99
2019-01-14T09:03:43.353Z,3.02
2019-01-14T09:06:13.584Z,3.12
2019-01-14T09:08:43.760Z,3.23
2019-01-14T09:11:14.419Z,3.31
2019-01-14T09:13:44.615Z,3.34
2019-01-14T09:16:14.774Z,3.42
2019-01-14T09:19:04.160Z,3.50
2019-01-14T09:21:34.681Z,3.50
2019-01-14T09:24:05.202Z,3.51
2019-01-14T09:26:35.749Z,3.57
2019-01-14T09:29:06.259Z,3.65
2019-01-14T09:31:36.573Z,3.73
2019-01-14T09:36:44.462Z,3.81
2019-01-14T09:39:14.691Z,3.92
2019-01-14T09:41:45.232Z,3.88
2019-01-14T09:44:15.765Z,3.90
2019-01-14T09:46:46.270Z,3.89
2019-01-14T09:49:16.515Z,3.86
2019-01-14T09:51:46.627Z,3.81
2019-01-14T09:54:16.959Z,3.83
2019-01-14T09:59:38.418Z,3.82
2019-01-14T10:02:08.567Z,3.79
2019-01-14T10:04:38.638Z,3.81
2019-01-14T10:07:09.186Z,3.77
2019-01-14T10:09:39.236Z,3.78
2019-01-14T10:12:09.632Z,3.79
2019-01-14T10:14:39.824Z,3.75
2019-01-14T10:17:10.322Z,3.79
2019-01-14T10:19:40.548Z,3.83
2019-01-14T10:22:10.867Z,3.82
2019-01-14T10:24:41.227Z,3.76
2019-01-14T10:27:11.355Z,3.69
2019-01-14T10:29:41.568Z,3.70
2019-01-14T10:32:49.912Z,3.53
2019-01-14T10:35:20.539Z,3.53
2019-01-14T10:37:50.770Z,3.43
2019-01-14T10:40:22.868Z,3.38
2019-01-14T10:42:53.610Z,3.54
2019-01-14T10:45:24.895Z,3.38
2019-01-14T10:47:56.714Z,3.33
2019-01-14T10:50:27.221Z,3.39
2019-01-14T10:52:57.466Z,3.38
2019-01-14T10:55:27.715Z,3.37
2019-01-14T10:57:58.343Z,3.39
2019-01-14T11:00:30.196Z,3.41
2019-01-14T11:05:51.653Z,3.36
2019-01-14T11:08:21.795Z,3.35
2019-01-14T11:11:03.394Z,3.27
2019-01-14T11:13:33.712Z,3.27
2019-01-14T11:16:04.118Z,3.28
2019-01-14T11:18:34.425Z,3.24
2019-01-14T11:21:04.706Z,3.22
2019-01-14T11:23:35.275Z,3.19
2019-01-14T11:29:06.793Z,3.10
2019-01-14T11:31:37.121Z,3.00
2019-01-14T11:34:07.675Z,2.97
2019-01-14T11:36:37.984Z,2.85
2019-01-14T11:39:37.023Z,2.86
2019-01-14T11:42:07.576Z,2.98
2019-01-14T11:44:37.714Z,3.17
2019-01-14T11:47:08.227Z,3.22
2019-01-14T11:49:38.394Z,3.20
2019-01-14T11:52:08.877Z,3.37
2019-01-14T11:54:39.608Z,3.41
2019-01-14T11:57:10.039Z,3.40
2019-01-14T11:59:41.233Z,3.35
2019-01-14T12:02:12.045Z,3.41
2019-01-14T12:04:42.398Z,3.39
2019-01-14T12:07:12.654Z,3.50
2019-01-14T12:09:42.759Z,3.42
2019-01-14T12:12:13.479Z,3.07
2019-01-14T12:14:43.697Z,2.78
2019-01-14T12:17:14.283Z,2.72
2019-01-14T12:19:44.694Z,2.66
2019-01-14T12:22:15.126Z,2.60
2019-01-14T12:24:45.149Z,2.73
2019-01-14T12:27:15.510Z,2.83
2019-01-14T12:29:45.628Z,2.91
2019-01-14T12:32:15.781Z,3.01
2019-01-14T12:34:46.148Z,3.09
2019-01-14T12:37:16.550Z,3.07
2019-01-14T12:39:46.606Z,3.06
2019-01-14T12:42:16.838Z,3.11
2019-01-14T12:44:47.552Z,3.30
2019-01-14T12:47:17.648Z,3.42
2019-01-14T12:49:48.069Z,3.59
2019-01-14T12:52:18.388Z,3.66
2019-01-14T12:54:48.559Z,3.62
2019-01-14T12:57:18.743Z,3.59
2019-01-14T12:59:49.152Z,3.63
2019-01-14T13:02:19.300Z,3.62
2019-01-14T13:04:49.505Z,3.63
2019-01-14T13:07:19.646Z,3.66
2019-01-14T13:09:49.708Z,3.84
2019-01-14T13:12:20.371Z,4.03
2019-01-14T13:14:50.433Z,4.01
2019-01-14T13:17:20.580Z,3.84
2019-01-14T13:19:50.799Z,3.91
2019-01-14T13:22:21.233Z,3.77
2019-01-14T13:24:51.485Z,3.68
2019-01-14T13:27:21.799Z,3.68
2019-01-14T13:29:52.653Z,3.60
2019-01-14T13:32:23.179Z,3.57
2019-01-14T13:34:53.482Z,3.58
2019-01-14T13:37:23.739Z,3.47
2019-01-14T13:39:53.863Z,3.42
2019-01-14T13:42:24.324Z,3.35
2019-01-14T13:44:54.552Z,3.24
2019-01-14T13:47:38.711Z,2.95
2019-01-14T13:53:20.072Z,3.38
2019-01-14T13:55:50.230Z,3.69
2019-01-14T13:58:20.512Z,4.00
2019-01-14T14:00:50.788Z,4.28
2019-01-14T14:03:21.079Z,4.44
2019-01-14T14:05:51.255Z,4.62
2019-01-14T14:08:21.370Z,4.78
2019-01-14T14:10:51.573Z,4.81
2019-01-14T14:13:21.846Z,4.73
2019-01-14T14:15:52.332Z,4.59
2019-01-14T14:18:24.427Z,4.22
2019-01-14T14:20:54.748Z,4.06
2019-01-14T14:23:25.347Z,3.80
2019-01-14T14:25:55.544Z,3.71
2019-01-14T14:28:25.761Z,3.62
2019-01-14T14:30:56.274Z,3.47
2019-01-14T14:33:26.601Z,3.46
2019-01-14T14:35:57.157Z,3.40
2019-01-14T14:38:27.405Z,3.44
2019-01-14T14:40:57.555Z,3.44
2019-01-14T14:43:27.664Z,3.43
2019-01-14T14:45:57.809Z,3.39
2019-01-14T14:48:28.195Z,3.27
2019-01-14T14:50:58.647Z,3.23
2019-01-14T14:53:28.980Z,3.15
2019-01-14T14:55:59.421Z,2.88
2019-01-14T14:58:29.726Z,2.28
2019-01-14T15:01:00.239Z,1.75
2019-01-14T15:03:30.520Z,1.43
2019-01-14T15:06:00.661Z,1.18
2019-01-14T15:08:31.054Z,0.94
2019-01-14T15:11:01.700Z,0.35
2019-01-14T15:13:32.283Z,0.11
2019-01-14T15:16:22.600Z,-0.12
2019-01-14T15:18:52.949Z,-0.87
2019-01-14T15:21:23.097Z,-1.00
2019-01-14T15:23:53.823Z,-0.84
2019-01-14T15:26:24.270Z,-0.84
2019-01-14T15:28:54.460Z,-0.76
2019-01-14T15:31:24.901Z,-0.70
2019-01-14T15:33:55.475Z,-0.55
2019-01-14T15:36:25.689Z,-0.45
2019-01-14T15:38:55.812Z,-0.45
2019-01-14T15:41:26.640Z,-0.39
2019-01-14T15:43:57.096Z,-0.38
2019-01-14T15:46:28.771Z,-0.28
2019-01-14T15:48:59.153Z,-0.22
2019-01-14T15:51:29.294Z,-0.19
2019-01-14T15:53:59.766Z,-0.16
2019-01-14T15:56:31.915Z,-0.17
2019-01-14T15:59:02.587Z,-0.12
2019-01-14T16:01:32.827Z,-0.11
2019-01-14T16:04:03.147Z,-0.09
2019-01-14T16:06:33.367Z,-0.10
2019-01-14T16:09:04.522Z,-0.14
2019-01-14T16:11:34.960Z,-0.14
2019-01-14T16:14:05.717Z,-0.06
2019-01-14T16:16:36.204Z,-0.05
2019-01-14T16:19:07.814Z,-0.07
2019-01-14T16:21:38.372Z,-0.09
2019-01-14T16:24:08.618Z,-0.11
2019-01-14T16:26:38.626Z,-0.10
2019-01-14T16:29:08.743Z,-0.15
2019-01-14T16:31:39.244Z,-0.17
2019-01-14T16:34:09.530Z,-0.15
2019-01-14T16:36:39.679Z,-0.11
2019-01-14T16:39:10.711Z,-0.12
2019-01-14T16:41:41.106Z,-0.14
2019-01-14T16:44:11.465Z,-0.11
2019-01-14T16:46:41.749Z,-0.07
2019-01-14T16:49:12.168Z,-0.07
2019-01-14T16:51:42.391Z,-0.04
2019-01-14T16:54:12.927Z,-0.06
2019-01-14T16:56:43.513Z,-0.06
2019-01-14T16:59:13.656Z,-0.05
2019-01-14T17:01:44.308Z,-0.03
2019-01-14T17:04:14.494Z,-0.04
2019-01-14T17:06:44.716Z,-0.05
2019-01-14T17:09:15.224Z,-0.06
2019-01-14T17:11:45.470Z,-0.05
2019-01-14T17:14:15.778Z,-0.07
2019-01-14T17:17:05.342Z,-0.08
2019-01-14T17:19:35.721Z,-0.09
2019-01-14T17:22:06.465Z,-0.10
2019-01-14T17:24:36.837Z,-0.13
2019-01-14T17:27:07.402Z,-0.10
2019-01-14T17:29:37.885Z,-0.12
2019-01-14T17:32:27.218Z,-0.14
2019-01-14T17:34:58.263Z,-0.14
2019-01-14T17:37:28.493Z,-0.17
2019-01-14T17:42:55.188Z,-0.21
2019-01-14T17:45:25.598Z,-0.19
2019-01-14T17:47:55.794Z,-0.17
2019-01-14T17:50:26.729Z,-0.18
2019-01-14T17:52:57.270Z,-0.20
2019-01-14T17:55:27.499Z,-0.20
2019-01-14T17:57:57.721Z,-0.24
2019-01-14T18:00:28.308Z,-0.23
2019-01-14T18:03:12.698Z,-0.23
2019-01-14T18:05:31.293Z,-0.23
2019-01-14T18:08:01.553Z,-0.22
2019-01-14T18:10:31.679Z,-0.19
2019-01-14T18:13:02.259Z,-0.27
2019-01-14T18:15:32.526Z,-0.29
2019-01-14T18:18:02.669Z,-0.20
2019-01-14T18:20:32.876Z,-0.31
2019-01-14T18:23:03.478Z,-0.36
2019-01-14T18:25:33.726Z,-0.33
2019-01-14T18:28:06.800Z,-0.38
2019-01-14T18:30:37.257Z,-0.38
2019-01-14T18:33:07.473Z,-0.36
2019-01-14T18:35:37.790Z,-0.44
2019-01-14T18:38:08.297Z,-0.42
2019-01-14T18:40:38.499Z,-0.52
2019-01-14T18:43:08.674Z,-0.53
2019-01-14T18:45:39.660Z,-0.55
2019-01-14T18:48:09.862Z,-0.56
2019-01-14T18:50:40.381Z,-0.58
2019-01-14T18:53:10.547Z,-0.59
2019-01-14T18:55:40.990Z,-0.65
2019-01-14T18:58:11.403Z,-0.67
2019-01-14T19:00:41.572Z,-0.69
2019-01-14T19:03:11.737Z,-0.68
2019-01-14T19:05:42.202Z,-0.67
2019-01-14T19:08:12.305Z,-0.75
2019-01-14T19:10:42.659Z,-0.72
2019-01-14T19:13:12.936Z,-0.71
2019-01-14T19:15:43.452Z,-0.77
2019-01-14T19:18:13.597Z,-0.72
2019-01-14T19:20:44.713Z,-0.74
2019-01-14T19:23:15.143Z,-0.74
2019-01-14T19:25:45.295Z,-0.78
2019-01-14T19:28:15.804Z,-0.76
2019-01-14T19:30:46.154Z,-0.75
2019-01-14T19:33:16.600Z,-0.74
2019-01-14T19:35:46.886Z,-0.74
2019-01-14T19:38:17.526Z,-0.70
2019-01-14T19:40:47.769Z,-0.71
2019-01-14T19:43:18.156Z,-0.68
2019-01-14T19:45:49.925Z,-0.69
2019-01-14T19:48:20.497Z,-0.69
2019-01-14T19:50:50.691Z,-0.71
2019-01-14T19:53:21.232Z,-0.53
2019-01-14T19:55:51.238Z,-0.54
2019-01-14T19:58:21.412Z,-0.56
2019-01-14T20:00:51.705Z,-0.61
2019-01-14T20:03:21.866Z,-0.63
2019-01-14T20:05:52.438Z,-0.68
2019-01-14T20:08:23.670Z,-0.63
2019-01-14T20:10:53.893Z,-0.67
2019-01-14T20:13:24.298Z,-0.64
2019-01-14T20:15:55.580Z,-0.65
2019-01-14T20:18:25.829Z,-0.66
2019-01-14T20:20:56.495Z,-0.64
2019-01-14T20:23:26.541Z,-0.64
2019-01-14T20:25:56.597Z,-0.65
2019-01-14T20:28:27.162Z,-0.65
2019-01-14T20:30:57.459Z,-0.64
2019-01-14T20:33:27.662Z,-0.63
2019-01-14T20:35:58.053Z,-0.63
2019-01-14T20:38:28.301Z,-0.64
2019-01-14T20:40:58.466Z,-0.64
2019-01-14T20:43:28.838Z,-0.64
2019-01-14T20:45:59.367Z,-0.64
2019-01-14T20:48:29.667Z,-0.63
2019-01-14T20:51:01.469Z,-0.64
2019-01-14T20:53:31.661Z,-0.60
2019-01-14T20:56:01.749Z,-0.67
2019-01-14T20:58:32.381Z,-0.66
2019-01-14T21:01:02.731Z,-0.66
2019-01-14T21:03:38.324Z,-0.67
2019-01-14T21:06:08.803Z,-0.62
2019-01-14T21:08:39.171Z,-0.58
2019-01-14T21:11:09.430Z,-0.54
2019-01-14T21:13:39.691Z,-0.56
2019-01-14T21:16:10.238Z,-0.56
2019-01-14T21:18:40.409Z,-0.55
2019-01-14T21:21:10.707Z,-0.52
2019-01-14T21:23:41.279Z,-0.54
2019-01-14T21:26:11.638Z,-0.53
2019-01-14T21:28:41.757Z,-0.51
2019-01-14T21:31:12.374Z,-0.52
2019-01-14T21:34:03.045Z,-0.52
2019-01-14T21:36:33.256Z,0.10
2019-01-14T21:39:03.568Z,-0.20
2019-01-14T21:41:34.135Z,-0.28
2019-01-14T21:44:04.290Z,-0.30
2019-01-14T21:46:36.450Z,-0.27
2019-01-14T21:49:06.706Z,-0.27
2019-01-14T21:51:37.203Z,-0.26
2019-01-14T21:54:07.722Z,-0.28
2019-01-14T21:56:39.077Z,-0.26
2019-01-14T21:59:10.386Z,-0.25
2019-01-14T22:01:40.667Z,-0.23
2019-01-14T22:04:10.976Z,-0.22
2019-01-14T22:06:41.336Z,-0.22
2019-01-14T22:12:13.000Z,-0.19
2019-01-14T22:14:43.544Z,-0.21
2019-01-14T22:17:14.821Z,-0.23
2019-01-14T22:20:24.242Z,-0.19
2019-01-14T22:22:56.993Z,-0.19
2019-01-14T22:25:27.507Z,-0.17
2019-01-14T22:27:57.837Z,-0.19
2019-01-14T22:30:30.773Z,-0.13
2019-01-14T22:33:01.261Z,-0.12
2019-01-14T22:35:31.483Z,-0.12
2019-01-14T22:38:01.748Z,-0.09
2019-01-14T22:40:32.235Z,0.00
2019-01-14T22:43:04.257Z,0.02
2019-01-14T22:45:35.091Z,0.06
2019-01-14T22:48:05.417Z,0.06
2019-01-14T22:50:35.630Z,0.09
2019-01-14T22:53:05.823Z,0.11
2019-01-14T22:55:36.247Z,0.11
2019-01-14T22:58:06.758Z,0.13
2019-01-14T23:01:20.882Z,0.16
2019-01-14T23:03:53.158Z,0.16
2019-01-14T23:06:23.536Z,0.18
2019-01-14T23:08:53.631Z,0.21
2019-01-14T23:11:23.834Z,0.23
2019-01-14T23:13:54.111Z,0.24
2019-01-14T23:16:24.378Z,0.27
2019-01-14T23:18:54.776Z,0.27
2019-01-14T23:21:25.232Z,0.28
2019-01-14T23:23:55.326Z,0.30
2019-01-14T23:26:25.422Z,0.32
2019-01-14T23:28:55.490Z,0.35
2019-01-14T23:31:25.747Z,0.35
2019-01-14T23:34:15.192Z,0.39
2019-01-14T23:36:45.486Z,0.39
2019-01-14T23:39:35.132Z,0.41
2019-01-14T23:42:05.457Z,0.44
2019-01-14T23:44:35.665Z,0.47
2019-01-14T23:47:06.103Z,0.47
2019-01-14T23:49:36.234Z,0.49
2019-01-14T23:52:06.588Z,0.50
2019-01-14T23:54:37.266Z,0.51
2019-01-14T23:57:08.707Z,0.56
2019-01-14T23:59:38.812Z,0.58
